KSVH/SVH METAR and TAF weather

Enter ICAO airport designator
Station Type Date Time Source
KSVH METAR 2019/06/26 16:20 UTC NOAA

KSVH 261620Z AUTO 35005KT 10SM CLR 28/16 A3020 RMK AO2 T02780161


Station Type Date Time Source
KSVH Decoded METAR 2019/06/26 16:20 UTC NOAA

Statesville, Statesville Municipal Airport, NC, United States (KSVH) 35-45-55N 080-57-24W
Jun 26, 2019 - 12:20 PM EDT / 2019.06.26 1620 UTC
Wind: from the N (350 degrees) at 6 MPH (5 KT):0
Visibility: 10 mile(s):0
Sky conditions: clear
Temperature: 82.0 F (27.8 C)
Dew Point: 61.0 F (16.1 C)
Relative Humidity: 48%
Pressure (altimeter): 30.2 in. Hg (1022 hPa)
ob: KSVH 261620Z AUTO 35005KT 10SM CLR 28/16 A3020 RMK AO2 T02780161
cycle: 16

Station Type Date Time Source
KSVH TAF UTC NOAA

Error!

Example: see airport list